Time;durP1;ratioP1;P1;durP2;ratioP2;P2;SDS_P1;SDS_P2;PMS_P1;PMS_P2;Temp;Humidity;BMP_temperature;BMP_pressure;BME280_temperature;BME280_humidity;BME280_pressure;Samples;Min_cycle;Max_cycle;Signal;HPM_P1;HPM_P2
2021/04/24 00:00:51;;;;;;;11.55;4.15;;;4.90;65.40;;;;;;5048993;28;20056;-66
2021/04/24 00:03:17;;;;;;;;;;;4.90;65.70;;;;;;5049101;28;20544;-67
2021/04/24 00:05:44;;;;;;;11.48;4.53;;;4.90;65.80;;;;;;5048640;28;19908;-66
2021/04/24 00:08:13;;;;;;;10.57;4.00;;;4.90;65.90;;;;;;5048486;28;20036;-67
2021/04/24 00:10:40;;;;;;;9.32;3.85;;;5.00;65.50;;;;;;5048357;28;20029;-67
2021/04/24 00:13:07;;;;;;;10.73;3.50;;;5.00;65.80;;;;;;5048724;28;20032;-66
2021/04/24 00:15:36;;;;;;;12.98;3.03;;;5.00;65.80;;;;;;5048542;28;20052;-67
2021/04/24 00:18:03;;;;;;;8.13;3.47;;;5.10;65.30;;;;;;5047103;28;20070;-67
2021/04/24 00:20:29;;;;;;;11.55;3.25;;;5.10;64.60;;;;;;5046821;28;20025;-66
2021/04/24 00:22:55;;;;;;;;;;;5.10;64.60;;;;;;5048504;28;20052;-66
2021/04/24 00:25:21;;;;;;;10.43;4.60;;;5.10;66.40;;;;;;5048808;28;19909;-66
2021/04/24 00:27:46;;;;;;;6.82;2.45;;;5.00;66.30;;;;;;5048122;28;20041;-67
2021/04/24 00:30:14;;;;;;;7.97;2.92;;;4.90;66.40;;;;;;5048195;28;20037;-67
2021/04/24 00:32:40;;;;;;;9.13;3.30;;;4.70;66.60;;;;;;5047798;28;20044;-67
2021/04/24 00:35:07;;;;;;;12.68;3.10;;;4.60;67.00;;;;;;5047962;28;20059;-67
2021/04/24 00:37:33;;;;;;;5.97;2.90;;;4.50;65.60;;;;;;5048480;28;20083;-67
2021/04/24 00:39:59;;;;;;;;;;;4.50;65.90;;;;;;5048234;28;20588;-67
2021/04/24 00:42:24;;;;;;;11.07;3.63;;;4.50;67.50;;;;;;5048135;28;20423;-67
2021/04/24 00:44:51;;;;;;;;;;;4.30;68.60;;;;;;5048249;28;20037;-66
2021/04/24 00:47:21;;;;;;;9.75;3.80;;;4.30;69.20;;;;;;5048292;28;19995;-66
2021/04/24 00:49:46;;;;;;;10.82;3.70;;;4.20;69.40;;;;;;5047483;28;20131;-67
2021/04/24 00:52:12;;;;;;;;;;;4.20;70.30;;;;;;5048120;28;20597;-66
2021/04/24 00:54:38;;;;;;;9.60;4.00;;;4.20;68.50;;;;;;5048091;28;20616;-67
2021/04/24 00:57:05;;;;;;;6.80;3.25;;;4.20;68.50;;;;;;5047547;28;20031;-66
2021/04/24 00:59:31;;;;;;;14.80;5.60;;;4.20;68.60;;;;;;5047686;28;20025;-66
2021/04/24 01:01:57;;;;;;;12.90;4.70;;;4.10;69.80;;;;;;5047549;28;20029;-66
2021/04/24 01:04:23;;;;;;;;;;;4.00;70.60;;;;;;5047941;28;20031;-66
2021/04/24 01:06:49;;;;;;;9.98;4.55;;;3.90;71.80;;;;;;5047541;28;20371;-66
2021/04/24 01:09:15;;;;;;;10.27;3.80;;;3.80;71.50;;;;;;5047483;28;20078;-66
2021/04/24 01:11:40;;;;;;;;;;;3.80;71.80;;;;;;5048123;28;20032;-68
2021/04/24 01:14:06;;;;;;;11.85;4.20;;;3.70;72.30;;;;;;5047129;28;19905;-67
2021/04/24 01:16:32;;;;;;;;;;;3.60;72.40;;;;;;5048146;28;20052;-66
2021/04/24 01:18:57;;;;;;;12.15;3.92;;;3.60;72.90;;;;;;5047161;28;20566;-67
2021/04/24 01:21:24;;;;;;;;;;;3.50;73.40;;;;;;5048021;28;20025;-67
2021/04/24 01:23:53;;;;;;;12.50;5.40;;;3.50;73.00;;;;;;5046988;28;19916;-66
2021/04/24 01:26:18;;;;;;;18.90;6.00;;;3.50;73.60;;;;;;5047010;28;20500;-66
2021/04/24 01:28:44;;;;;;;;;;;3.40;73.90;;;;;;5047689;28;20044;-67
2021/04/24 01:31:10;;;;;;;10.00;4.53;;;3.40;74.30;;;;;;5046923;28;19919;-67
2021/04/24 01:33:36;;;;;;;;;;;3.30;74.40;;;;;;5047291;28;20032;-67
2021/04/24 01:36:02;;;;;;;9.98;3.33;;;3.40;74.80;;;;;;5047083;28;19909;-67
2021/04/24 01:38:28;;;;;;;8.63;3.40;;;3.30;74.80;;;;;;5046940;28;20083;-66
2021/04/24 01:40:53;;;;;;;;;;;3.30;75.00;;;;;;5047414;28;20033;-67
2021/04/24 01:43:19;;;;;;;10.10;3.75;;;3.30;75.10;;;;;;5046587;28;19909;-67
2021/04/24 01:45:44;;;;;;;;;;;3.30;75.30;;;;;;5047405;28;20100;-67
2021/04/24 01:48:10;;;;;;;12.02;5.13;;;3.20;75.40;;;;;;5046119;28;19950;-67
2021/04/24 01:50:41;;;;;;;;;;;3.30;75.10;;;;;;5047234;28;20120;-66
2021/04/24 01:53:10;;;;;;;11.45;4.15;;;3.30;75.00;;;;;;5046397;28;19909;-66
2021/04/24 01:55:39;;;;;;;8.43;4.18;;;3.30;74.30;;;;;;5045937;28;20083;-66
2021/04/24 01:58:08;;;;;;;8.60;3.38;;;3.30;73.90;;;;;;5046632;28;20452;-66
2021/04/24 02:00:42;;;;;;;8.43;3.40;;;3.30;73.50;;;;;;5046854;28;20029;-66
2021/04/24 02:03:11;;;;;;;9.55;3.42;;;3.30;73.60;;;;;;5044916;28;20036;-67
2021/04/24 02:05:37;;;;;;;12.45;5.68;;;3.30;73.50;;;;;;5046738;28;20100;-66
2021/04/24 02:08:15;;;;;;;14.52;6.47;;;3.30;74.40;;;;;;5045879;28;20071;-67
2021/04/24 02:10:44;;;;;;;19.08;7.55;;;3.20;75.00;;;;;;5046528;28;20044;-67
2021/04/24 02:13:12;;;;;;;17.45;8.07;;;3.10;76.30;;;;;;5045362;28;20037;-65
2021/04/24 02:15:38;;;;;;;22.33;9.20;;;3.10;76.40;;;;;;5046490;28;20547;-67
2021/04/24 02:18:05;;;;;;;21.17;7.28;;;3.00;76.50;;;;;;5045624;28;20415;-67
2021/04/24 02:20:32;;;;;;;15.00;7.18;;;3.00;76.10;;;;;;5046364;28;20037;-66
2021/04/24 02:22:58;;;;;;;11.25;5.32;;;2.90;76.10;;;;;;5046399;28;20029;-66
2021/04/24 02:25:24;;;;;;;;;;;2.90;76.30;;;;;;5046506;28;20032;-66
2021/04/24 02:27:50;;;;;;;12.70;5.70;;;2.90;76.90;;;;;;5044900;28;19908;-66
2021/04/24 02:30:19;;;;;;;12.20;5.18;;;2.80;76.50;;;;;;5046362;28;20045;-67
2021/04/24 02:32:46;;;;;;;14.88;5.13;;;2.80;77.00;;;;;;5045495;28;20025;-67
2021/04/24 02:35:15;;;;;;;13.90;6.55;;;2.70;76.70;;;;;;5046227;28;20029;-66
2021/04/24 02:37:40;;;;;;;17.85;8.15;;;2.70;76.70;;;;;;5045983;28;20024;-67
2021/04/24 02:40:12;;;;;;;;;;;2.70;77.00;;;;;;5046398;28;20029;-67
2021/04/24 02:42:37;;;;;;;12.35;6.32;;;2.70;77.20;;;;;;5046121;28;19909;-67
2021/04/24 02:45:05;;;;;;;;;;;2.70;77.40;;;;;;5046364;28;20511;-67
2021/04/24 02:47:32;;;;;;;11.27;4.65;;;2.70;77.20;;;;;;5046193;28;19909;-67
2021/04/24 02:49:57;;;;;;;11.57;5.13;;;2.70;77.00;;;;;;5045752;28;20477;-67
2021/04/24 02:52:23;;;;;;;;;;;2.70;77.00;;;;;;5045997;28;20078;-66
2021/04/24 02:54:49;;;;;;;10.30;4.57;;;2.70;77.00;;;;;;5045944;28;19947;-66
2021/04/24 02:57:14;;;;;;;;;;;2.60;76.90;;;;;;5046503;28;20033;-66
2021/04/24 02:59:40;;;;;;;25.05;10.88;;;2.60;77.20;;;;;;5045893;28;19908;-67
2021/04/24 03:02:05;;;;;;;22.15;10.57;;;2.60;78.20;;;;;;5045504;28;20516;-67
2021/04/24 03:04:31;;;;;;;;;;;2.60;77.70;;;;;;5046131;28;20048;-66
2021/04/24 03:06:57;;;;;;;9.82;3.50;;;2.50;77.70;;;;;;5045619;28;19909;-67
2021/04/24 03:09:22;;;;;;;;;;;2.50;77.30;;;;;;5048812;28;20473;-67
2021/04/24 03:11:48;;;;;;;10.68;3.58;;;2.60;77.30;;;;;;5048147;28;19970;-67
2021/04/24 03:14:14;;;;;;;;;;;2.60;77.20;;;;;;5049901;28;20029;-67
2021/04/24 03:16:40;;;;;;;13.15;4.10;;;2.60;77.50;;;;;;5049637;28;19970;-68
2021/04/24 03:19:07;;;;;;;10.65;3.55;;;2.50;77.80;;;;;;5048855;28;20366;-67
2021/04/24 03:21:32;;;;;;;9.13;4.45;;;2.50;77.70;;;;;;5049364;28;20033;-67
2021/04/24 03:23:58;;;;;;;;;;;2.50;77.90;;;;;;5049880;28;20085;-67
2021/04/24 03:26:24;;;;;;;20.23;7.40;;;2.40;78.60;;;;;;5049274;28;20510;-67
2021/04/24 03:28:51;;;;;;;15.63;6.82;;;2.30;78.60;;;;;;5049222;28;20032;-66
2021/04/24 03:31:17;;;;;;;18.00;7.45;;;2.30;78.60;;;;;;5047890;28;20033;-67
2021/04/24 03:33:43;;;;;;;12.05;6.22;;;2.30;78.70;;;;;;5048369;28;20021;-67
2021/04/24 03:36:09;;;;;;;;;;;2.30;79.50;;;;;;5049607;28;20028;-66
2021/04/24 03:38:35;;;;;;;15.13;7.53;;;2.30;79.30;;;;;;5049080;28;19905;-67
2021/04/24 03:41:02;;;;;;;25.10;12.50;;;2.30;78.90;;;;;;5049061;28;20394;-67
2021/04/24 03:43:28;;;;;;;17.38;8.23;;;2.40;79.10;;;;;;5049110;28;20036;-67
2021/04/24 03:45:54;;;;;;;;;;;2.40;79.10;;;;;;5047927;28;20025;-65
2021/04/24 03:48:19;;;;;;;16.40;7.22;;;2.40;79.00;;;;;;5048483;28;19912;-67
2021/04/24 03:50:45;;;;;;;;;;;2.40;79.10;;;;;;5049402;28;20026;-67
2021/04/24 03:53:10;;;;;;;18.77;6.53;;;2.40;79.00;;;;;;5048899;28;19974;-67
2021/04/24 03:55:36;;;;;;;;;;;2.40;79.10;;;;;;5049292;28;20111;-66
2021/04/24 03:58:02;;;;;;;14.68;6.32;;;2.40;79.10;;;;;;5048691;28;19928;-67
2021/04/24 04:00:30;;;;;;;39.92;22.98;;;2.40;79.30;;;;;;5048611;28;20024;-67
2021/04/24 04:02:57;;;;;;;29.90;17.05;;;2.40;79.50;;;;;;5048311;28;20044;-66
2021/04/24 04:05:27;;;;;;;16.15;9.77;;;2.50;79.60;;;;;;5048264;28;20021;-66
2021/04/24 04:07:53;;;;;;;24.35;11.10;;;2.50;79.60;;;;;;5048538;28;20108;-66
2021/04/24 04:10:19;;;;;;;;;;;2.60;79.60;;;;;;5048220;28;20118;-66
2021/04/24 04:12:46;;;;;;;25.20;11.80;;;2.70;79.30;;;;;;5048649;28;19916;-66
2021/04/24 04:15:13;;;;;;;31.90;16.85;;;2.80;79.20;;;;;;5046807;28;20037;-65
2021/04/24 04:18:02;;;;;;;54.13;27.45;;;3.00;78.80;;;;;;5048552;28;20040;-69
2021/04/24 04:20:28;;;;;;;44.58;25.98;;;3.10;78.30;;;;;;5047334;28;20040;-67
2021/04/24 04:22:54;;;;;;;59.60;30.33;;;3.20;78.10;;;;;;5048171;28;20021;-67
2021/04/24 04:25:19;;;;;;;;;;;3.30;77.80;;;;;;5047191;28;20033;-67
2021/04/24 04:27:45;;;;;;;43.00;20.88;;;3.50;77.30;;;;;;5047834;28;19909;-67
2021/04/24 04:30:14;;;;;;;35.47;16.50;;;3.60;77.10;;;;;;5061796;28;20145;-66
2021/04/24 04:32:40;;;;;;;36.15;18.42;;;3.80;76.80;;;;;;5067669;28;20433;-67
2021/04/24 04:35:06;;;;;;;;;;;4.30;76.30;;;;;;5068182;28;20028;-67
2021/04/24 04:37:32;;;;;;;31.17;16.77;;;4.60;75.50;;;;;;5067595;28;19904;-67
2021/04/24 04:39:58;;;;;;;;;;;5.00;73.60;;;;;;5067966;28;20040;-67
2021/04/24 04:42:24;;;;;;;33.83;17.60;;;5.30;73.10;;;;;;5067755;28;19950;-67
2021/04/24 04:44:49;;;;;;;;;;;5.60;72.80;;;;;;5067896;28;20029;-67
2021/04/24 04:47:15;;;;;;;41.58;19.20;;;6.00;70.40;;;;;;5066052;28;19915;-67
2021/04/24 04:49:41;;;;;;;;;;;6.40;69.80;;;;;;5067699;28;20043;-66
2021/04/24 04:52:06;;;;;;;21.35;11.85;;;6.80;67.70;;;;;;5067740;28;19922;-67
2021/04/24 04:54:32;;;;;;;;;;;7.30;65.70;;;;;;5067634;28;20028;-68
2021/04/24 04:56:57;;;;;;;37.92;15.15;;;7.70;62.80;;;;;;5066119;28;19916;-67
2021/04/24 04:59:23;;;;;;;25.25;12.98;;;8.10;61.70;;;;;;5066703;28;20408;-66
2021/04/24 05:01:49;;;;;;;;;;;8.20;61.10;;;;;;5064317;28;20044;-66
2021/04/24 05:04:15;;;;;;;22.55;8.07;;;8.50;59.80;;;;;;5047289;28;19905;-67
2021/04/24 05:06:42;;;;;;;;;;;9.00;58.70;;;;;;5047539;28;20500;-67
2021/04/24 05:09:08;;;;;;;17.27;7.25;;;9.30;56.30;;;;;;5047294;28;20206;-67
2021/04/24 05:11:33;;;;;;;;;;;9.60;56.30;;;;;;5047684;28;20599;-67
2021/04/24 05:13:59;;;;;;;12.02;4.45;;;9.80;56.10;;;;;;5047272;28;19916;-67
2021/04/24 05:16:24;;;;;;;33.92;18.85;;;10.10;55.60;;;;;;5047019;28;20401;-67
2021/04/24 05:18:50;;;;;;;;;;;10.80;53.70;;;;;;5047205;28;20112;-66
2021/04/24 05:21:16;;;;;;;16.63;9.23;;;11.40;50.70;;;;;;5047406;28;19909;-67
2021/04/24 05:23:41;;;;;;;;;;;12.00;50.10;;;;;;5047514;28;20031;-67
2021/04/24 05:26:07;;;;;;;9.73;3.90;;;12.60;47.70;;;;;;5047028;28;20040;-67
2021/04/24 05:28:33;;;;;;;;;;;12.90;46.50;;;;;;5047485;28;20025;-67
2021/04/24 05:30:58;;;;;;;7.95;3.70;;;13.30;45.30;;;;;;5045384;28;19923;-68
2021/04/24 05:33:24;;;;;;;7.00;3.88;;;13.50;44.40;;;;;;5046863;28;20036;-68
2021/04/24 05:35:50;;;;;;;6.70;3.70;;;13.90;44.60;;;;;;5046821;28;20033;-68
2021/04/24 05:38:16;;;;;;;8.70;4.15;;;14.10;43.20;;;;;;5046510;28;20099;-67
2021/04/24 05:40:41;;;;;;;10.65;4.20;;;14.60;42.70;;;;;;5046876;28;20032;-68
2021/04/24 05:43:07;;;;;;;5.75;3.45;;;15.10;41.10;;;;;;5046655;28;20379;-67
2021/04/24 05:45:33;;;;;;;6.10;3.35;;;15.30;40.10;;;;;;5045822;28;20645;-67
2021/04/24 05:47:58;;;;;;;10.75;4.28;;;15.60;40.20;;;;;;5045014;28;20060;-68
2021/04/24 05:50:25;;;;;;;10.55;3.75;;;16.20;38.40;;;;;;5046246;28;20131;-66
2021/04/24 05:52:50;;;;;;;7.55;4.07;;;16.50;37.90;;;;;;5046436;28;20722;-67
2021/04/24 05:55:18;;;;;;;7.28;3.63;;;17.20;35.90;;;;;;5046510;28;20107;-70
2021/04/24 05:57:43;;;;;;;9.00;4.22;;;17.50;36.10;;;;;;5044884;28;20070;-68
2021/04/24 06:00:13;;;;;;;9.52;4.47;;;18.10;34.30;;;;;;5046281;28;20029;-68
2021/04/24 06:02:38;;;;;;;13.55;3.97;;;18.30;33.40;;;;;;5045631;28;20025;-68
2021/04/24 06:05:09;;;;;;;12.50;5.07;;;18.50;33.00;;;;;;5046376;28;20033;-68
2021/04/24 06:07:39;;;;;;;8.45;4.43;;;18.80;32.30;;;;;;5046322;28;20050;-68
2021/04/24 06:10:06;;;;;;;12.70;3.90;;;18.90;32.40;;;;;;5045647;28;20055;-67
2021/04/24 06:12:32;;;;;;;9.43;4.20;;;19.10;32.10;;;;;;5046293;28;20402;-68
2021/04/24 06:14:57;;;;;;;9.90;4.57;;;19.40;32.10;;;;;;5046182;28;20515;-67
2021/04/24 06:17:25;;;;;;;9.15;4.90;;;19.70;30.80;;;;;;5046207;28;20032;-68
2021/04/24 06:19:51;;;;;;;10.88;4.53;;;20.00;30.60;;;;;;5046258;28;20032;-68
2021/04/24 06:22:16;;;;;;;7.63;4.07;;;20.70;29.50;;;;;;5045795;28;20037;-68
2021/04/24 06:24:42;;;;;;;8.02;4.50;;;21.40;28.60;;;;;;5046223;28;20025;-68
2021/04/24 06:27:08;;;;;;;7.95;4.28;;;21.50;28.00;;;;;;5045702;28;20029;-69
2021/04/24 06:29:33;;;;;;;8.98;3.85;;;21.70;27.50;;;;;;5046048;28;20448;-68
2021/04/24 06:31:59;;;;;;;6.55;4.60;;;22.00;27.50;;;;;;5045717;28;20064;-66
2021/04/24 06:34:25;;;;;;;18.20;4.88;;;22.00;27.30;;;;;;5046174;28;20440;-67
2021/04/24 06:36:51;;;;;;;9.30;4.78;;;21.80;27.50;;;;;;5046102;28;20075;-66
2021/04/24 06:39:16;;;;;;;6.30;4.28;;;22.00;27.40;;;;;;5045651;28;20409;-66
2021/04/24 06:41:42;;;;;;;8.40;3.67;;;21.90;27.30;;;;;;5045943;28;20501;-67
2021/04/24 06:44:08;;;;;;;7.68;4.13;;;22.00;27.20;;;;;;5049864;28;20663;-67
2021/04/24 06:46:33;;;;;;;11.68;4.78;;;21.90;27.20;;;;;;5049790;28;20025;-66
2021/04/24 06:48:59;;;;;;;8.15;4.30;;;22.20;27.20;;;;;;5049571;28;20045;-67
2021/04/24 06:51:24;;;;;;;7.45;4.97;;;22.40;27.20;;;;;;5050076;28;20064;-66
2021/04/24 06:53:52;;;;;;;5.88;3.50;;;22.20;27.10;;;;;;5070076;28;20103;-66
2021/04/24 06:56:18;;;;;;;6.97;4.13;;;21.90;27.80;;;;;;5069465;28;20029;-67
2021/04/24 06:58:44;;;;;;;8.65;5.30;;;21.90;27.70;;;;;;5069800;28;20024;-66
2021/04/24 07:01:09;;;;;;;10.43;4.72;;;22.00;27.10;;;;;;5069296;28;20032;-66
2021/04/24 07:03:37;;;;;;;10.52;4.40;;;21.90;27.40;;;;;;5069677;28;20481;-66
2021/04/24 07:06:03;;;;;;;10.63;4.72;;;21.80;27.70;;;;;;5069330;28;20027;-66
2021/04/24 07:08:28;;;;;;;16.70;12.10;;;21.80;27.30;;;;;;5069550;28;20463;-65
2021/04/24 07:10:54;;;;;;;12.43;5.50;;;21.50;27.90;;;;;;5069813;28;20555;-66
2021/04/24 07:13:20;;;;;;;9.00;4.45;;;21.70;27.90;;;;;;5069278;28;20523;-68
2021/04/24 07:15:45;;;;;;;7.90;3.70;;;21.90;27.90;;;;;;5069363;28;20837;-67
2021/04/24 07:18:11;;;;;;;7.22;4.57;;;21.90;27.50;;;;;;5069030;28;20029;-66
2021/04/24 07:20:37;;;;;;;11.35;4.60;;;22.20;27.10;;;;;;5067827;28;20089;-66
2021/04/24 07:23:02;;;;;;;8.38;4.50;;;22.50;26.90;;;;;;5068855;28;20028;-66
2021/04/24 07:25:28;;;;;;;8.57;5.20;;;22.80;26.40;;;;;;5069336;28;20036;-66
2021/04/24 07:27:53;;;;;;;12.07;4.78;;;22.30;27.10;;;;;;5069241;28;20037;-66
2021/04/24 07:30:20;;;;;;;12.07;4.05;;;22.50;26.40;;;;;;5068074;28;20504;-66
2021/04/24 07:32:45;;;;;;;14.07;3.95;;;22.80;26.00;;;;;;5068993;28;20026;-66
2021/04/24 07:35:12;;;;;;;11.43;4.40;;;22.50;26.20;;;;;;5066248;28;20047;-65
2021/04/24 07:37:38;;;;;;;8.55;4.13;;;22.70;26.00;;;;;;5067791;28;20032;-66
2021/04/24 07:40:05;;;;;;;7.68;4.00;;;22.80;26.30;;;;;;5067791;28;20086;-66
2021/04/24 07:42:31;;;;;;;8.18;3.85;;;23.00;26.30;;;;;;5068081;28;20412;-66
2021/04/24 07:44:56;;;;;;;9.68;3.85;;;23.40;25.40;;;;;;5067319;28;20033;-65
2021/04/24 07:47:22;;;;;;;7.95;3.25;;;23.30;25.30;;;;;;5068041;28;20051;-66
2021/04/24 07:49:47;;;;;;;10.52;4.25;;;23.40;24.90;;;;;;5067779;28;20160;-66
2021/04/24 07:52:14;;;;;;;7.80;3.95;;;23.60;24.50;;;;;;5058847;28;20565;-64
2021/04/24 07:54:43;;;;;;;6.95;4.03;;;23.40;24.40;;;;;;5056490;28;20040;-65
2021/04/24 07:57:10;;;;;;;6.15;3.70;;;23.10;24.70;;;;;;5056021;28;20529;-66
2021/04/24 07:59:36;;;;;;;12.32;4.10;;;22.80;25.30;;;;;;5055536;28;20516;-65
2021/04/24 08:02:02;;;;;;;8.68;4.15;;;23.00;25.50;;;;;;5056755;28;20045;-66
2021/04/24 08:04:27;;;;;;;8.13;3.85;;;23.10;25.20;;;;;;5052439;28;20033;-65
2021/04/24 08:06:53;;;;;;;11.52;3.75;;;23.30;24.70;;;;;;5057314;28;20051;-66
2021/04/24 08:09:19;;;;;;;8.82;4.40;;;23.00;25.00;;;;;;5052620;28;20048;-65
2021/04/24 08:11:44;;;;;;;8.43;3.88;;;23.00;25.00;;;;;;5055272;28;20036;-66
2021/04/24 08:14:10;;;;;;;12.38;3.83;;;23.20;24.10;;;;;;5056250;28;20040;-66
2021/04/24 08:16:36;;;;;;;9.25;3.40;;;23.30;24.10;;;;;;5047641;28;20123;-66
2021/04/24 08:19:01;;;;;;;11.85;5.35;;;23.30;24.50;;;;;;5054385;28;20802;-66
2021/04/24 08:21:27;;;;;;;10.38;5.40;;;23.40;23.90;;;;;;5057654;28;20071;-66
2021/04/24 08:23:58;;;;;;;6.13;4.60;;;23.30;23.70;;;;;;5056922;28;20021;-66
2021/04/24 08:26:29;;;;;;;7.75;4.65;;;23.30;24.10;;;;;;5058062;28;20562;-66
2021/04/24 08:28:55;;;;;;;8.40;4.15;;;23.20;24.70;;;;;;5056357;28;20573;-66
2021/04/24 08:31:21;;;;;;;5.90;3.97;;;23.40;24.90;;;;;;5056013;28;20987;-66
2021/04/24 08:33:47;;;;;;;10.48;3.92;;;23.20;25.00;;;;;;5057548;28;20507;-65
2021/04/24 08:36:13;;;;;;;9.57;3.92;;;23.20;25.60;;;;;;5054508;28;20025;-67
2021/04/24 08:38:39;;;;;;;10.45;4.32;;;22.80;25.00;;;;;;5046825;28;20079;-68
2021/04/24 08:41:06;;;;;;;6.05;3.47;;;23.10;24.60;;;;;;5046498;28;20374;-67
2021/04/24 08:43:37;;;;;;;8.23;3.90;;;23.30;24.60;;;;;;5045502;28;20029;-67
2021/04/24 08:46:03;;;;;;;6.72;3.50;;;23.40;24.20;;;;;;5045232;28;20033;-67
2021/04/24 08:48:29;;;;;;;7.88;3.47;;;23.30;24.80;;;;;;5045730;28;20040;-67
2021/04/24 08:50:55;;;;;;;7.97;3.83;;;23.20;24.40;;;;;;5046603;28;20045;-68
2021/04/24 08:53:21;;;;;;;12.57;4.13;;;23.20;24.30;;;;;;5047394;28;20036;-67
2021/04/24 08:55:48;;;;;;;6.45;3.85;;;23.30;24.50;;;;;;5047002;28;20025;-67
2021/04/24 08:58:14;;;;;;;6.63;3.60;;;23.00;24.60;;;;;;5047286;28;20044;-68
2021/04/24 09:00:42;;;;;;;5.72;3.13;;;23.10;24.90;;;;;;5047401;28;20048;-66
2021/04/24 09:03:13;;;;;;;10.82;3.10;;;23.60;23.80;;;;;;5047344;28;20017;-67
2021/04/24 09:05:40;;;;;;;6.65;3.22;;;23.60;23.20;;;;;;5047113;28;20041;-67
2021/04/24 09:08:07;;;;;;;5.30;2.95;;;23.50;23.40;;;;;;5047064;28;20028;-67
2021/04/24 09:10:44;;;;;;;6.72;3.50;;;23.40;23.60;;;;;;5047382;28;20521;-66
2021/04/24 09:13:15;;;;;;;9.05;3.53;;;23.10;23.10;;;;;;5047027;28;20040;-67
2021/04/24 09:15:41;;;;;;;7.93;2.97;;;22.30;24.40;;;;;;5047144;28;20106;-67
2021/04/24 09:18:09;;;;;;;7.03;3.13;;;22.30;25.10;;;;;;5046778;28;20032;-67
2021/04/24 09:20:43;;;;;;;9.98;3.05;;;22.20;24.20;;;;;;5047132;28;20048;-67
2021/04/24 09:23:09;;;;;;;11.02;3.47;;;21.80;25.00;;;;;;5047004;28;20052;-67
2021/04/24 09:25:37;;;;;;;5.97;3.08;;;21.90;25.10;;;;;;5046887;28;20121;-67
2021/04/24 09:28:04;;;;;;;6.55;3.53;;;22.30;25.10;;;;;;5047029;28;20032;-67
2021/04/24 09:30:32;;;;;;;7.55;3.53;;;22.40;24.80;;;;;;5045250;28;20037;-67
2021/04/24 09:33:16;;;;;;;10.45;3.78;;;22.10;24.70;;;;;;5046955;28;20413;-67
2021/04/24 09:35:46;;;;;;;6.55;3.42;;;22.50;24.40;;;;;;5046922;28;20670;-66
2021/04/24 09:38:19;;;;;;;7.28;3.45;;;22.60;24.10;;;;;;5046215;28;20584;-66
2021/04/24 09:41:01;;;;;;;8.55;3.15;;;22.90;24.90;;;;;;5046640;28;20511;-67
2021/04/24 09:43:26;;;;;;;6.20;2.70;;;23.60;24.10;;;;;;5046324;28;20033;-66
2021/04/24 09:45:52;;;;;;;10.52;2.67;;;23.60;23.10;;;;;;5046590;28;20036;-67
2021/04/24 09:48:19;;;;;;;9.98;4.15;;;22.60;23.00;;;;;;5046345;28;20043;-66
2021/04/24 09:50:45;;;;;;;8.88;2.45;;;22.00;24.60;;;;;;5046295;28;20037;-66
2021/04/24 09:53:16;;;;;;;4.93;2.25;;;21.80;25.00;;;;;;5046365;28;20086;-67
2021/04/24 09:55:43;;;;;;;7.10;3.17;;;21.90;25.20;;;;;;5045353;28;20029;-67
2021/04/24 09:58:24;;;;;;;8.48;3.15;;;21.60;25.30;;;;;;5045656;28;20110;-67
2021/04/24 10:00:50;;;;;;;7.75;3.00;;;20.90;25.80;;;;;;5046377;28;20033;-66
2021/04/24 10:03:38;;;;;;;8.43;3.58;;;20.90;26.20;;;;;;5046215;28;20033;-67
2021/04/24 10:06:23;;;;;;;5.15;2.55;;;21.50;25.90;;;;;;5046002;28;20484;-67
2021/04/24 10:08:50;;;;;;;8.77;2.80;;;21.90;25.00;;;;;;5044973;28;20067;-66
2021/04/24 10:11:27;;;;;;;7.32;2.85;;;22.00;25.70;;;;;;5045872;28;20068;-67
2021/04/24 10:13:53;;;;;;;7.43;2.72;;;22.10;25.30;;;;;;5044520;28;20036;-66
2021/04/24 10:16:39;;;;;;;4.85;2.33;;;22.00;25.00;;;;;;5045856;28;20532;-67
2021/04/24 10:19:07;;;;;;;6.60;2.83;;;21.50;25.50;;;;;;5045968;28;20140;-66
2021/04/24 10:21:34;;;;;;;7.72;2.88;;;21.10;26.20;;;;;;5046198;28;20070;-68
2021/04/24 10:24:01;;;;;;;5.95;1.80;;;20.80;25.80;;;;;;5045940;28;20041;-67
2021/04/24 10:26:27;;;;;;;7.45;2.53;;;20.40;27.00;;;;;;5046093;28;20540;-66
2021/04/24 10:28:55;;;;;;;7.45;2.72;;;20.10;26.90;;;;;;5045664;28;20040;-66
2021/04/24 10:31:21;;;;;;;7.25;1.88;;;19.90;27.10;;;;;;5044727;28;20370;-67
2021/04/24 10:33:47;;;;;;;6.70;2.15;;;19.60;26.20;;;;;;5046060;28;20778;-67
2021/04/24 10:36:12;;;;;;;7.75;2.45;;;19.20;27.80;;;;;;5045620;28;20116;-66
2021/04/24 10:38:44;;;;;;;6.97;2.40;;;19.00;28.00;;;;;;5045678;28;20025;-66
2021/04/24 10:41:11;;;;;;;8.32;2.10;;;18.60;28.50;;;;;;5046176;28;20032;-66
2021/04/24 10:43:38;;;;;;;9.35;2.97;;;18.40;28.40;;;;;;5045463;28;20025;-66
2021/04/24 10:46:31;;;;;;;7.40;1.98;;;18.20;28.70;;;;;;5045730;28;20029;-66
2021/04/24 10:49:16;;;;;;;6.18;2.22;;;18.20;28.30;;;;;;5045670;28;20413;-66
2021/04/24 10:51:55;;;;;;;9.05;2.58;;;18.00;29.30;;;;;;5045872;28;20029;-66
2021/04/24 10:54:22;;;;;;;7.68;1.77;;;17.90;29.50;;;;;;5045609;28;20051;-66
2021/04/24 10:56:48;;;;;;;6.38;2.13;;;17.80;29.20;;;;;;5045172;28;20513;-66
2021/04/24 10:59:20;;;;;;;6.45;1.98;;;17.70;28.80;;;;;;5045544;28;20053;-66
2021/04/24 11:02:07;;;;;;;10.80;2.25;;;17.60;29.60;;;;;;5045623;28;20509;-66
2021/04/24 11:04:49;;;;;;;5.88;2.60;;;17.60;29.20;;;;;;5045629;28;20128;-66
2021/04/24 11:07:27;;;;;;;5.70;1.70;;;17.60;29.50;;;;;;5045513;28;20025;-65
2021/04/24 11:10:11;;;;;;;6.22;1.67;;;17.60;28.90;;;;;;5044769;28;20044;-67
2021/04/24 11:12:50;;;;;;;6.53;2.05;;;17.50;29.70;;;;;;5044915;28;20041;-66
2021/04/24 11:15:18;;;;;;;7.28;2.45;;;17.40;29.30;;;;;;5045332;28;20100;-66
2021/04/24 11:17:45;;;;;;;6.13;2.03;;;17.30;29.30;;;;;;5045292;28;20037;-66
2021/04/24 11:20:12;;;;;;;6.32;1.95;;;17.20;29.60;;;;;;5045278;28;20120;-66
2021/04/24 11:22:40;;;;;;;7.10;1.85;;;17.10;29.60;;;;;;5045506;28;20025;-64
2021/04/24 11:25:22;;;;;;;5.90;1.95;;;16.90;29.90;;;;;;5045249;28;20029;-66
2021/04/24 11:28:10;;;;;;;7.20;1.88;;;16.80;29.20;;;;;;5044635;28;20074;-66
2021/04/24 11:30:48;;;;;;;8.02;1.58;;;16.70;30.70;;;;;;5048285;28;20112;-64
2021/04/24 11:33:33;;;;;;;9.05;1.80;;;16.70;30.40;;;;;;5048820;28;20060;-67
2021/04/24 11:39:03;;;;;;;7.50;1.80;;;16.90;30.50;;;;;;5049610;28;20098;-66
2021/04/24 11:41:47;;;;;;;4.55;1.30;;;17.00;31.10;;;;;;5046427;28;20029;-67
2021/04/24 11:44:15;;;;;;;9.18;1.55;;;17.20;31.10;;;;;;5046769;28;20046;-66
2021/04/24 11:46:41;;;;;;;5.72;1.50;;;17.30;30.30;;;;;;5051047;28;20123;-67
2021/04/24 11:49:12;;;;;;;7.18;1.70;;;17.40;29.10;;;;;;5051323;28;20071;-66
2021/04/24 11:51:43;;;;;;;4.88;1.33;;;17.50;29.90;;;;;;5054341;28;20048;-66
2021/04/24 11:54:16;;;;;;;8.15;1.73;;;17.60;29.00;;;;;;5043797;28;20472;-65
2021/04/24 11:56:47;;;;;;;5.40;1.42;;;17.60;28.70;;;;;;5045881;28;20099;-67
2021/04/24 11:59:18;;;;;;;6.28;1.20;;;17.60;29.50;;;;;;5055120;28;20124;-65
2021/04/24 12:01:44;;;;;;;3.45;1.35;;;17.60;29.60;;;;;;5051016;28;20043;-67
2021/04/24 12:04:28;;;;;;;8.30;1.00;;;17.60;28.50;;;;;;5056687;28;20044;-66
2021/04/24 12:07:20;;;;;;;6.47;1.30;;;17.60;28.50;;;;;;5052698;28;20118;-65
2021/04/24 12:10:01;;;;;;;6.15;1.30;;;17.70;29.00;;;;;;5052100;28;20526;-66
2021/04/24 12:12:36;;;;;;;5.63;1.13;;;17.70;29.40;;;;;;5055908;28;20037;-66
2021/04/24 12:15:05;;;;;;;10.90;2.15;;;17.90;28.30;;;;;;5050538;28;20069;-66
2021/04/24 12:17:33;;;;;;;6.93;2.13;;;17.90;28.10;;;;;;5052306;28;20087;-66
2021/04/24 12:19:59;;;;;;;7.55;1.40;;;17.90;28.90;;;;;;5060769;28;20032;-68
2021/04/24 12:22:25;;;;;;;4.38;1.40;;;17.90;27.90;;;;;;5067678;28;20033;-67
2021/04/24 12:25:05;;;;;;;5.35;1.50;;;17.80;28.50;;;;;;5067827;28;20047;-67
2021/04/24 12:27:35;;;;;;;11.27;1.45;;;17.80;28.60;;;;;;5067237;28;20039;-66
2021/04/24 12:30:26;;;;;;;6.95;1.42;;;17.80;28.00;;;;;;5067904;28;20082;-66
2021/04/24 12:32:53;;;;;;;7.13;1.90;;;17.70;28.70;;;;;;5068019;28;20547;-67
2021/04/24 12:35:27;;;;;;;5.88;1.75;;;17.60;29.20;;;;;;5068086;28;20513;-67
2021/04/24 12:38:00;;;;;;;8.85;1.73;;;17.70;29.50;;;;;;5067958;28;20539;-66
2021/04/24 12:40:27;;;;;;;5.68;1.60;;;17.70;28.40;;;;;;5067781;28;20036;-67
2021/04/24 12:43:01;;;;;;;9.77;1.77;;;17.60;28.80;;;;;;5067462;28;20119;-66
2021/04/24 12:45:27;;;;;;;5.57;1.40;;;17.70;29.10;;;;;;5067876;28;20064;-67
2021/04/24 12:47:54;;;;;;;7.15;1.48;;;17.60;28.10;;;;;;5067623;28;20047;-68
2021/04/24 12:50:28;;;;;;;7.20;1.80;;;17.60;29.30;;;;;;5067460;28;20134;-67
2021/04/24 12:53:00;;;;;;;12.80;1.73;;;17.60;29.00;;;;;;5067719;28;20614;-67
2021/04/24 12:55:43;;;;;;;4.22;1.48;;;17.60;29.10;;;;;;5067467;28;20027;-67
2021/04/24 12:58:13;;;;;;;5.78;1.30;;;17.70;28.40;;;;;;5066933;28;20401;-67
2021/04/24 13:00:48;;;;;;;5.80;1.20;;;17.70;29.10;;;;;;5067555;28;20028;-67
2021/04/24 13:03:24;;;;;;;9.35;2.20;;;17.70;28.20;;;;;;5067550;28;20020;-67
2021/04/24 13:05:51;;;;;;;4.50;1.33;;;17.70;28.80;;;;;;5067462;28;20037;-67